Time;durP1;ratioP1;P1;durP2;ratioP2;P2;SDS_P1;SDS_P2;PMS_P1;PMS_P2;Temp;Humidity;BMP_temperature;BMP_pressure;BME280_temperature;BME280_humidity;BME280_pressure;Samples;Min_cycle;Max_cycle;Signal;HPM_P1;HPM_P2
2024/02/22 00:02:19;;;;;;;;;;;;;;;16.39;45.86;101456.06;5038371;28;1067;-48
2024/02/22 00:04:45;;;;;;;;;;;;;;;16.02;46.54;101456.66;5018617;28;1087;-47
2024/02/22 00:07:15;;;;;;;;;;;;;;;15.72;47.25;101453.22;5032820;28;1072;-49
2024/02/22 00:09:41;;;;;;;;;;;;;;;16.21;46.21;101449.78;5038232;28;1906;-47
2024/02/22 00:12:07;;;;;;;;;;;;;;;17.55;43.29;101442.09;5038327;28;934;-48
2024/02/22 00:14:34;;;;;;;;;;;;;;;16.98;44.37;101441.63;5030059;28;1086;-48
2024/02/22 00:17:02;;;;;;;;;;;;;;;16.21;46.02;101441.56;5031669;28;1068;-49
2024/02/22 00:19:28;;;;;;;;;;;;;;;16.00;46.73;101439.63;5027336;28;1060;-46
2024/02/22 00:21:53;;;;;;;;;;;;;;;15.71;47.51;101435.09;5023072;28;1063;-47
2024/02/22 00:24:19;;;;;;;;;;;;;;;16.59;45.43;101426.09;5029781;28;1079;-48
2024/02/22 00:26:47;;;;;;;;;;;;;;;17.67;42.90;101422.66;5033936;28;1135;-49
2024/02/22 00:29:13;;;;;;;;;;;;;;;16.64;44.95;101417.09;5038679;28;1187;-50
2024/02/22 00:31:38;;;;;;;;;;;;;;;16.06;46.55;101420.25;5038231;28;1902;-48
2024/02/22 00:34:04;;;;;;;;;;;;;;;15.86;47.04;101412.56;5038324;28;1008;-49
2024/02/22 00:36:38;;;;;;;;;;;;;;;15.60;47.77;101408.63;5037945;28;1087;-49
2024/02/22 00:39:04;;;;;;;;;;;;;;;16.01;46.70;101406.47;5038451;28;1159;-45
2024/02/22 00:41:29;;;;;;;;;;;;;;;17.39;43.40;101395.25;5037935;28;1092;-46
2024/02/22 00:43:55;;;;;;;;;;;;;;;17.31;43.59;101390.25;5028418;28;1238;-44
2024/02/22 00:46:21;;;;;;;;;;;;;;;16.45;45.47;101399.31;5021329;28;1039;-48
2024/02/22 00:48:46;;;;;;;;;;;;;;;16.04;46.71;101403.19;5037781;28;1206;-49
2024/02/22 00:51:12;;;;;;;;;;;;;;;15.82;47.06;101403.22;5037404;28;1906;-45
2024/02/22 00:53:37;;;;;;;;;;;;;;;15.54;47.58;101390.41;5029092;28;1079;-45
2024/02/22 00:56:03;;;;;;;;;;;;;;;16.26;46.34;101394.16;5032771;28;1099;-44
2024/02/22 00:58:28;;;;;;;;;;;;;;;17.50;43.29;101387.91;5037216;28;1027;-47
2024/02/22 01:00:57;;;;;;;;;;;;;;;16.95;44.42;101387.19;5037848;28;1106;-45
2024/02/22 01:03:23;;;;;;;;;;;;;;;16.28;45.98;101378.25;5037767;28;1091;-48
2024/02/22 01:05:48;;;;;;;;;;;;;;;15.96;46.82;101381.69;5037621;28;1126;-46
2024/02/22 01:08:14;;;;;;;;;;;;;;;15.70;47.21;101375.03;5037378;28;1103;-45
2024/02/22 01:10:39;;;;;;;;;;;;;;;16.36;45.92;101375.06;5025114;28;1984;-48
2024/02/22 01:13:05;;;;;;;;;;;;;;;17.59;43.08;101367.06;5037174;28;1114;-50
2024/02/22 01:15:31;;;;;;;;;;;;;;;16.86;44.63;101359.34;5024135;28;1106;-51
2024/02/22 01:17:57;;;;;;;;;;;;;;;16.25;45.84;101362.31;5037139;28;996;-49
2024/02/22 01:20:22;;;;;;;;;;;;;;;15.96;46.88;101367.16;5023748;28;1122;-48
2024/02/22 01:22:48;;;;;;;;;;;;;;;15.70;47.42;101362.13;5037234;28;1182;-51
2024/02/22 01:25:13;;;;;;;;;;;;;;;17.14;44.18;101354.66;5034659;28;1194;-52
2024/02/22 01:27:39;;;;;;;;;;;;;;;17.36;43.18;101351.81;5026029;28;1248;-44
2024/02/22 01:30:05;;;;;;;;;;;;;;;16.50;45.60;101355.44;5037240;28;1906;-46
2024/02/22 01:32:31;;;;;;;;;;;;;;;16.08;46.33;101354.97;5036834;28;1110;-47
2024/02/22 01:34:56;;;;;;;;;;;;;;;15.79;46.90;101364.44;5035698;28;1024;-46
2024/02/22 01:37:22;;;;;;;;;;;;;;;15.64;47.35;101363.16;5036909;28;1080;-49
2024/02/22 01:39:47;;;;;;;;;;;;;;;16.97;44.41;101363.06;5036605;28;1055;-50
2024/02/22 01:42:13;;;;;;;;;;;;;;;17.54;43.08;101361.50;5037145;28;1143;-46
2024/02/22 01:44:38;;;;;;;;;;;;;;;16.53;45.49;101374.13;5035078;28;1191;-47
2024/02/22 01:47:05;;;;;;;;;;;;;;;16.10;46.27;101370.34;5025383;28;1043;-46
2024/02/22 01:49:31;;;;;;;;;;;;;;;15.82;46.89;101363.97;5036377;28;1981;-46
2024/02/22 01:51:58;;;;;;;;;;;;;;;15.58;47.46;101369.63;5028031;28;1059;-48
2024/02/22 01:54:23;;;;;;;;;;;;;;;16.37;46.03;101371.22;5032271;28;1071;-48
2024/02/22 01:56:49;;;;;;;;;;;;;;;17.61;42.90;101367.63;5036587;28;1457;-47
2024/02/22 01:59:14;;;;;;;;;;;;;;;16.62;45.28;101369.00;5035065;28;1155;-45
2024/02/22 02:01:40;;;;;;;;;;;;;;;16.13;46.43;101364.34;5052140;28;1075;-47
2024/02/22 02:04:07;;;;;;;;;;;;;;;15.82;47.11;101372.19;5033567;28;1083;-46
2024/02/22 02:06:32;;;;;;;;;;;;;;;15.64;47.49;101373.28;5016933;28;1048;-51
2024/02/22 02:08:59;;;;;;;;;;;;;;;17.18;43.91;101363.19;5031788;28;1166;-50
2024/02/22 02:11:25;;;;;;;;;;;;;;;16.98;44.40;101364.69;5034551;28;1901;-48
2024/02/22 02:13:50;;;;;;;;;;;;;;;16.21;46.07;101358.41;5034619;28;1040;-51
2024/02/22 02:16:16;;;;;;;;;;;;;;;15.82;47.23;101363.97;5025483;28;1078;-46
2024/02/22 02:18:41;;;;;;;;;;;;;;;15.66;47.49;101371.13;5036012;28;1135;-47
2024/02/22 02:21:19;;;;;;;;;;;;;;;16.83;44.72;101367.28;5027189;28;1060;-47
2024/02/22 02:23:44;;;;;;;;;;;;;;;17.41;43.28;101362.00;5032238;28;1071;-44
2024/02/22 02:26:10;;;;;;;;;;;;;;;16.31;45.87;101363.19;5036145;28;1179;-46
2024/02/22 02:28:35;;;;;;;;;;;;;;;15.96;46.62;101359.75;5036299;28;1183;-47
2024/02/22 02:31:01;;;;;;;;;;;;;;;15.73;47.16;101361.63;5026718;28;1958;-46
2024/02/22 02:33:26;;;;;;;;;;;;;;;16.20;46.28;101359.50;5032298;28;1142;-46
2024/02/22 02:35:52;;;;;;;;;;;;;;;17.52;43.14;101358.22;5034697;28;1156;-48
2024/02/22 02:38:18;;;;;;;;;;;;;;;16.93;44.16;101351.75;5022751;28;1146;-44
2024/02/22 02:40:43;;;;;;;;;;;;;;;16.24;45.91;101358.75;5026399;28;1051;-46
2024/02/22 02:43:09;;;;;;;;;;;;;;;15.90;46.92;101356.13;5032126;28;1401;-47
2024/02/22 02:45:34;;;;;;;;;;;;;;;15.70;47.13;101355.84;5038634;28;1083;-48
2024/02/22 02:48:00;;;;;;;;;;;;;;;16.35;46.06;101342.38;5039614;28;1048;-49
2024/02/22 02:50:25;;;;;;;;;;;;;;;17.57;43.13;101344.50;5030732;28;1901;-47
2024/02/22 02:52:52;;;;;;;;;;;;;;;16.99;44.29;101341.63;5036233;28;1103;-48
2024/02/22 02:55:18;;;;;;;;;;;;;;;16.20;46.26;101343.88;5039722;28;1131;-47
2024/02/22 02:57:43;;;;;;;;;;;;;;;15.94;46.75;101348.22;5039480;28;1119;-46
2024/02/22 03:00:11;;;;;;;;;;;;;;;15.67;47.34;101356.31;5039259;28;912;-50
2024/02/22 03:02:37;;;;;;;;;;;;;;;16.76;45.09;101338.13;5039491;28;1178;-49
2024/02/22 03:05:03;;;;;;;;;;;;;;;17.68;42.92;101355.56;5039629;28;1063;-48
2024/02/22 03:07:28;;;;;;;;;;;;;;;16.64;45.19;101356.69;5040014;28;1071;-48
2024/02/22 03:09:54;;;;;;;;;;;;;;;16.06;46.30;101357.16;5039740;28;1976;-43
2024/02/22 03:12:19;;;;;;;;;;;;;;;15.84;46.85;101350.84;5039375;28;1171;-50
2024/02/22 03:14:45;;;;;;;;;;;;;;;15.64;47.38;101351.34;5039932;28;1156;-45
2024/02/22 03:17:10;;;;;;;;;;;;;;;16.57;45.26;101353.31;5039547;28;1047;-48
2024/02/22 03:19:36;;;;;;;;;;;;;;;17.59;42.97;101342.31;5039724;28;1099;-50
2024/02/22 03:22:01;;;;;;;;;;;;;;;16.59;45.25;101331.91;5039434;28;1179;-45
2024/02/22 03:24:27;;;;;;;;;;;;;;;16.07;46.25;101336.88;5039249;28;923;-47
2024/02/22 03:26:53;;;;;;;;;;;;;;;15.77;47.17;101345.50;5027039;28;1187;-48
2024/02/22 03:29:19;;;;;;;;;;;;;;;15.83;47.11;101339.03;5039675;28;1214;-46
2024/02/22 03:31:45;;;;;;;;;;;;;;;17.34;43.37;101340.22;5037287;28;1987;-44
2024/02/22 03:34:11;;;;;;;;;;;;;;;17.28;43.35;101333.88;5026403;28;1114;-53
2024/02/22 03:36:41;;;;;;;;;;;;;;;16.40;45.53;101343.25;5032295;28;1119;-54
2024/02/22 03:39:11;;;;;;;;;;;;;;;16.00;46.62;101349.13;5031449;28;1433;-47
2024/02/22 03:41:37;;;;;;;;;;;;;;;15.73;47.34;101356.16;5032314;28;1035;-52
2024/02/22 03:44:02;;;;;;;;;;;;;;;15.65;47.35;101356.56;5019209;28;1075;-53
2024/02/22 03:46:28;;;;;;;;;;;;;;;17.15;43.86;101359.06;5034042;28;1008;-51
2024/02/22 03:48:53;;;;;;;;;;;;;;;17.16;43.63;101365.41;5039204;28;941;-47
2024/02/22 03:51:19;;;;;;;;;;;;;;;16.38;45.68;101366.56;5035425;28;1906;-47
2024/02/22 03:53:45;;;;;;;;;;;;;;;15.93;46.78;101370.41;5037220;28;2398;-50
2024/02/22 03:56:11;;;;;;;;;;;;;;;15.74;47.33;101363.28;5037069;28;1365;-50
2024/02/22 03:58:39;;;;;;;;;;;;;;;16.71;45.20;101373.75;5038479;28;1270;-47
2024/02/22 04:01:05;;;;;;;;;;;;;;;17.59;43.00;101369.81;5037867;28;1336;-51
2024/02/22 04:03:31;;;;;;;;;;;;;;;16.57;45.24;101375.28;5037982;28;1369;-49
2024/02/22 04:05:57;;;;;;;;;;;;;;;16.04;46.53;101367.53;5037757;28;1309;-48
2024/02/22 04:08:22;;;;;;;;;;;;;;;15.82;46.77;101383.16;5037329;28;1324;-47
2024/02/22 04:10:48;;;;;;;;;;;;;;;16.55;45.37;101381.03;5037082;28;1906;-46
2024/02/22 04:13:13;;;;;;;;;;;;;;;17.63;42.89;101375.63;5037491;28;1281;-50
2024/02/22 04:15:39;;;;;;;;;;;;;;;16.61;45.04;101387.41;5038209;28;1309;-51
2024/02/22 04:18:04;;;;;;;;;;;;;;;16.13;46.08;101386.28;5038266;28;1159;-44
2024/02/22 04:20:30;;;;;;;;;;;;;;;15.86;46.96;101393.34;5033160;28;1086;-52
2024/02/22 04:22:55;;;;;;;;;;;;;;;15.68;47.37;101386.25;5018420;28;2510;-51
2024/02/22 04:25:21;;;;;;;;;;;;;;;16.73;44.86;101379.84;5038079;28;888;-53
2024/02/22 04:27:47;;;;;;;;;;;;;;;17.61;42.59;101373.13;5037812;28;1121;-51
2024/02/22 04:30:13;;;;;;;;;;;;;;;16.56;45.19;101373.59;5037539;28;1975;-52
2024/02/22 04:32:39;;;;;;;;;;;;;;;16.06;46.18;101375.50;5035216;28;1028;-53
2024/02/22 04:35:05;;;;;;;;;;;;;;;15.70;47.08;101370.38;5018495;28;1094;-53
2024/02/22 04:37:30;;;;;;;;;;;;;;;15.96;46.68;101367.16;5032508;28;1198;-53
2024/02/22 04:39:56;;;;;;;;;;;;;;;17.38;43.29;101374.34;5037016;28;1111;-52
2024/02/22 04:42:21;;;;;;;;;;;;;;;16.74;44.76;101378.72;5038170;28;1248;-51
2024/02/22 04:44:47;;;;;;;;;;;;;;;16.13;46.23;101372.59;5038227;28;968;-53
2024/02/22 04:47:12;;;;;;;;;;;;;;;15.82;46.85;101374.94;5038080;28;1034;-53
2024/02/22 04:49:38;;;;;;;;;;;;;;;15.70;47.48;101373.09;5035798;28;1974;-53
2024/02/22 04:52:05;;;;;;;;;;;;;;;17.16;43.93;101363.47;5037251;28;1294;-48
2024/02/22 04:54:32;;;;;;;;;;;;;;;17.28;43.37;101368.78;5031950;28;2514;-51
2024/02/22 04:56:58;;;;;;;;;;;;;;;16.36;45.61;101366.81;5017525;28;980;-53
2024/02/22 04:59:23;;;;;;;;;;;;;;;15.89;46.69;101376.44;5035459;28;1004;-51
2024/02/22 05:01:49;;;;;;;;;;;;;;;15.67;47.46;101370.03;5037180;28;861;-52
2024/02/22 05:04:15;;;;;;;;;;;;;;;15.49;47.60;101371.16;5036898;28;1048;-45
2024/02/22 05:06:40;;;;;;;;;;;;;;;16.53;45.59;101374.13;5036648;28;1000;-53
2024/02/22 05:09:06;;;;;;;;;;;;;;;17.60;42.89;101370.66;5037254;28;1067;-54
2024/02/22 05:11:31;;;;;;;;;;;;;;;16.77;44.88;101380.97;5037620;28;1910;-54
2024/02/22 05:13:59;;;;;;;;;;;;;;;16.40;45.69;101373.44;5036861;28;1132;-54
2024/02/22 05:16:26;;;;;;;;;;;;;;;17.99;42.14;101363.97;5037306;28;1143;-51
2024/02/22 05:18:52;;;;;;;;;;;;;;;17.12;43.78;101364.25;5036800;28;1063;-52
2024/02/22 05:21:17;;;;;;;;;;;;;;;17.26;43.71;101365.47;5036897;28;1051;-53
2024/02/22 05:23:44;;;;;;;;;;;;;;;18.45;41.08;101370.47;5037107;28;2668;-51
2024/02/22 05:26:09;;;;;;;;;;;;;;;16.81;44.61;101364.78;5036992;28;845;-50
2024/02/22 05:28:35;;;;;;;;;;;;;;;17.81;42.57;101374.34;5036855;28;1155;-50
2024/02/22 05:31:01;;;;;;;;;;;;;;;17.84;42.41;101375.69;5036525;28;1915;-50
2024/02/22 05:33:27;;;;;;;;;;;;;;;17.60;43.44;101376.16;5036236;28;1157;-52
2024/02/22 05:35:52;;;;;;;;;;;;;;;18.92;40.21;101381.59;5036564;28;1000;-53
2024/02/22 05:38:18;;;;;;;;;;;;;;;17.47;43.42;101377.44;5036704;28;1114;-55
2024/02/22 05:40:44;;;;;;;;;;;;;;;17.01;44.20;101380.69;5037135;28;1081;-57
2024/02/22 05:43:10;;;;;;;;;;;;;;;18.20;42.00;101382.25;5023905;28;1104;-57
2024/02/22 05:45:37;;;;;;;;;;;;;;;17.57;43.13;101377.50;5036451;28;1135;-57
2024/02/22 05:48:03;;;;;;;;;;;;;;;17.33;43.96;101377.06;5036835;28;1099;-49
2024/02/22 05:50:29;;;;;;;;;;;;;;;18.84;40.59;101387.63;5036436;28;1984;-54
2024/02/22 05:52:54;;;;;;;;;;;;;;;17.34;43.71;101400.72;5036103;28;2536;-54
2024/02/22 05:55:20;;;;;;;;;;;;;;;16.87;44.63;101406.88;5025951;28;1059;-52
2024/02/22 05:57:45;;;;;;;;;;;;;;;17.85;43.28;101399.38;5036465;28;1028;-52
2024/02/22 06:00:13;;;;;;;;;;;;;;;18.02;42.25;101404.72;5036190;28;1088;-53
2024/02/22 06:02:39;;;;;;;;;;;;;;;17.06;44.37;101397.19;5032336;28;931;-48
2024/02/22 06:05:06;;;;;;;;;;;;;;;17.95;42.88;101411.31;5026767;28;1032;-55
2024/02/22 06:07:32;;;;;;;;;;;;;;;17.73;43.07;101402.34;5032442;28;1384;-49
2024/02/22 06:09:57;;;;;;;;;;;;;;;16.92;44.46;101393.22;5035822;28;1979;-49
2024/02/22 06:12:23;;;;;;;;;;;;;;;18.22;42.38;101391.03;5036400;28;1234;-49
2024/02/22 06:14:48;;;;;;;;;;;;;;;17.64;43.16;101376.44;5036535;28;997;-51
2024/02/22 06:17:14;;;;;;;;;;;;;;;17.20;44.57;101374.78;5036140;28;1044;-49
2024/02/22 06:19:39;;;;;;;;;;;;;;;18.70;41.05;101392.81;5035667;28;1008;-52
2024/02/22 06:22:05;;;;;;;;;;;;;;;17.38;43.72;101392.78;5035966;28;1080;-47
2024/02/22 06:24:30;;;;;;;;;;;;;;;16.87;44.51;101396.72;5036012;28;1122;-50
2024/02/22 06:26:56;;;;;;;;;;;;;;;17.65;43.43;101409.16;5031783;28;920;-52
2024/02/22 06:29:21;;;;;;;;;;;;;;;18.07;42.46;101405.56;5027140;28;1048;-51
2024/02/22 06:31:47;;;;;;;;;;;;;;;17.19;44.17;101408.84;5035989;28;1906;-51
2024/02/22 06:34:12;;;;;;;;;;;;;;;17.88;43.19;101407.09;5036336;28;1054;-52
2024/02/22 06:36:38;;;;;;;;;;;;;;;17.22;44.13;101411.06;5031737;28;1078;-53
2024/02/22 06:39:03;;;;;;;;;;;;;;;17.97;43.00;101416.53;5024667;28;873;-54
2024/02/22 06:41:29;;;;;;;;;;;;;;;18.60;41.16;101415.66;5033892;28;1115;-52
2024/02/22 06:43:56;;;;;;;;;;;;;;;18.04;42.70;101419.88;5035881;28;1079;-50
2024/02/22 06:46:24;;;;;;;;;;;;;;;19.44;39.47;101418.25;5036217;28;1141;-51
2024/02/22 06:48:49;;;;;;;;;;;;;;;15.42;48.72;101426.16;5035155;28;1091;-52
2024/02/22 06:51:15;;;;;;;;;;;;;;;18.34;42.08;101423.03;5035739;28;1897;-51
2024/02/22 06:53:40;;;;;;;;;;;;;;;19.11;40.29;101424.06;5032038;28;1007;-52
2024/02/22 06:56:07;;;;;;;;;;;;;;;17.88;43.00;101418.09;5026368;28;1037;-50
2024/02/22 06:58:32;;;;;;;;;;;;;;;19.31;39.98;101425.16;5035609;28;1130;-48
2024/02/22 07:00:58;;;;;;;;;;;;;;;15.68;47.96;101413.66;5035739;28;1210;-53
2024/02/22 07:03:24;;;;;;;;;;;;;;;18.25;42.63;101408.94;5035724;28;1090;-53
2024/02/22 07:05:50;;;;;;;;;;;;;;;19.47;39.59;101401.97;5035920;28;1063;-51
2024/02/22 07:08:15;;;;;;;;;;;;;;;15.32;49.59;101413.13;5035728;28;1044;-51
2024/02/22 07:10:41;;;;;;;;;;;;;;;18.90;41.16;101403.91;5035481;28;1979;-49
2024/02/22 07:13:06;;;;;;;;;;;;;;;18.59;41.47;101403.00;5035483;28;1071;-52
2024/02/22 07:15:32;;;;;;;;;;;;;;;17.74;43.49;101393.81;5035536;28;1095;-55
2024/02/22 07:17:57;;;;;;;;;;;;;;;17.36;43.90;101395.78;5028581;28;1222;-52
2024/02/22 07:20:23;;;;;;;;;;;;;;;17.07;44.24;101396.09;5034828;28;1072;-47
2024/02/22 07:22:49;;;;;;;;;;;;;;;17.19;44.44;101400.59;5035505;28;1139;-53
2024/02/22 07:25:16;;;;;;;;;;;;;;;18.53;41.90;101395.81;5035451;28;1035;-48
2024/02/22 07:27:41;;;;;;;;;;;;;;;17.40;44.15;101399.66;5034072;28;1158;-55
2024/02/22 07:30:08;;;;;;;;;;;;;;;17.01;44.62;101394.41;5035526;28;1906;-52
2024/02/22 07:32:33;;;;;;;;;;;;;;;17.69;43.91;101393.78;5038123;28;1043;-52
2024/02/22 07:35:00;;;;;;;;;;;;;;;18.01;42.85;101395.66;5039477;28;1399;-55
2024/02/22 07:37:26;;;;;;;;;;;;;;;17.18;44.37;101393.44;5038495;28;1110;-55
2024/02/22 07:39:53;;;;;;;;;;;;;;;16.77;44.92;101391.97;5034183;28;1104;-61
2024/02/22 07:42:19;;;;;;;;;;;;;;;17.68;43.93;101394.06;5030281;28;1151;-48
2024/02/22 07:44:45;;;;;;;;;;;;;;;17.78;43.26;101392.19;5034894;28;1107;-48
2024/02/22 07:47:11;;;;;;;;;;;;;;;17.03;44.79;101402.38;5029829;28;1114;-50
2024/02/22 07:49:37;;;;;;;;;;;;;;;16.76;45.18;101395.78;5034152;28;1984;-49
2024/02/22 07:52:02;;;;;;;;;;;;;;;16.63;45.01;101395.38;5038365;28;1055;-49
2024/02/22 07:54:28;;;;;;;;;;;;;;;16.35;45.33;101389.03;5029904;28;1217;-51
2024/02/22 07:56:55;;;;;;;;;;;;;;;18.05;42.88;101384.94;5045915;28;1163;-53
2024/02/22 07:59:21;;;;;;;;;;;;;;;17.02;44.91;101390.56;5038807;28;1357;-48
2024/02/22 08:01:47;;;;;;;;;;;;;;;16.58;45.56;101388.75;5037551;28;1230;-50
2024/02/22 08:04:12;;;;;;;;;;;;;;;17.27;44.67;101391.88;5035012;28;1340;-52
2024/02/22 08:06:38;;;;;;;;;;;;;;;18.04;42.65;101392.34;5034104;28;1082;-56
2024/02/22 08:09:03;;;;;;;;;;;;;;;16.99;44.91;101382.84;5033613;28;1191;-50
2024/02/22 08:11:29;;;;;;;;;;;;;;;17.01;45.30;101377.94;5028030;28;1902;-49
2024/02/22 08:13:55;;;;;;;;;;;;;;;18.06;42.69;101384.66;5030489;28;978;-50
2024/02/22 08:16:20;;;;;;;;;;;;;;;16.99;44.85;101385.59;5034690;28;1089;-48
2024/02/22 08:18:48;;;;;;;;;;;;;;;18.59;41.73;101391.97;5037498;28;1130;-49
2024/02/22 08:21:13;;;;;;;;;;;;;;;17.72;43.42;101385.00;5036953;28;1007;-48
2024/02/22 08:23:39;;;;;;;;;;;;;;;17.16;44.78;101387.38;5035935;28;1059;-49
2024/02/22 08:26:04;;;;;;;;;;;;;;;16.80;45.09;101385.09;5024583;28;1084;-54
2024/02/22 08:28:30;;;;;;;;;;;;;;;17.05;44.90;101376.28;5036957;28;999;-53
2024/02/22 08:30:55;;;;;;;;;;;;;;;18.58;41.47;101380.13;5037043;28;1905;-53
2024/02/22 08:33:23;;;;;;;;;;;;;;;17.28;44.29;101377.84;5037253;28;1078;-54
2024/02/22 08:35:48;;;;;;;;;;;;;;;16.89;45.08;101380.00;5036440;28;1267;-49
2024/02/22 08:38:14;;;;;;;;;;;;;;;18.09;42.86;101373.13;5036489;28;1074;-52
2024/02/22 08:40:42;;;;;;;;;;;;;;;17.60;43.72;101354.97;5017805;28;1268;-51
2024/02/22 08:43:08;;;;;;;;;;;;;;;16.96;44.88;101357.78;5030611;28;1016;-51
2024/02/22 08:45:34;;;;;;;;;;;;;;;16.79;45.04;101369.72;5037183;28;1070;-48
2024/02/22 08:47:59;;;;;;;;;;;;;;;18.06;43.07;101367.31;5035459;28;1110;-51
2024/02/22 08:50:25;;;;;;;;;;;;;;;17.49;43.92;101356.00;5021735;28;1957;-45
2024/02/22 08:52:50;;;;;;;;;;;;;;;16.88;44.97;101370.06;5036239;28;1508;-47
2024/02/22 08:55:16;;;;;;;;;;;;;;;16.66;45.10;101379.22;5036907;28;1012;-46
2024/02/22 08:57:53;;;;;;;;;;;;;;;17.23;44.62;101382.47;5035386;28;1087;-47
2024/02/22 09:00:19;;;;;;;;;;;;;;;17.33;44.25;101370.72;5026241;28;1083;-43
2024/02/22 09:02:45;;;;;;;;;;;;;;;16.72;45.36;101371.88;5036281;28;1004;-46
2024/02/22 09:05:11;;;;;;;;;;;;;;;16.55;45.34;101377.44;5036334;28;1131;-50
2024/02/22 09:07:39;;;;;;;;;;;;;;;17.55;43.86;101368.69;5036920;28;1075;-51
2024/02/22 09:10:15;;;;;;;;;;;;;;;16.72;45.58;101371.88;5036451;28;1985;-48
2024/02/22 09:12:48;;;;;;;;;;;;;;;18.42;41.94;101365.50;5036425;28;1107;-49
2024/02/22 09:15:24;;;;;;;;;;;;;;;17.33;44.19;101366.06;5033956;28;1103;-50
2024/02/22 09:17:50;;;;;;;;;;;;;;;16.84;45.01;101368.94;5035290;28;1019;-50
2024/02/22 09:20:18;;;;;;;;;;;;;;;16.89;45.11;101361.59;5036830;28;1185;-52
2024/02/22 09:22:43;;;;;;;;;;;;;;;17.12;44.66;101358.75;5036458;28;1048;-50
2024/02/22 09:25:09;;;;;;;;;;;;;;;16.74;45.52;101361.44;5036366;28;1062;-49
2024/02/22 09:27:36;;;;;;;;;;;;;;;18.51;41.88;101351.19;5033987;28;1067;-53
2024/02/22 09:30:03;;;;;;;;;;;;;;;17.16;44.43;101360.72;5035889;28;1980;-53
2024/02/22 09:32:29;;;;;;;;;;;;;;;16.75;45.18;101355.69;5035944;28;1109;-47
2024/02/22 09:34:55;;;;;;;;;;;;;;;16.47;45.04;101353.22;5035774;28;1063;-51
2024/02/22 09:37:22;;;;;;;;;;;;;;;18.28;42.50;101354.16;5036398;28;1118;-49
2024/02/22 09:39:49;;;;;;;;;;;;;;;17.43;44.14;101357.91;5036010;28;974;-53
2024/02/22 09:42:15;;;;;;;;;;;;;;;16.79;45.24;101349.66;5035345;28;992;-51
2024/02/22 09:44:40;;;;;;;;;;;;;;;16.56;45.36;101348.91;5025685;28;1052;-48
2024/02/22 09:47:08;;;;;;;;;;;;;;;17.43;44.34;101349.66;5030658;28;1016;-51
2024/02/22 09:49:33;;;;;;;;;;;;;;;17.52;44.16;101338.97;5034755;28;1056;-48
2024/02/22 09:51:59;;;;;;;;;;;;;;;16.85;45.04;101337.66;5021183;28;1906;-51
2024/02/22 09:54:25;;;;;;;;;;;;;;;17.02;45.32;101332.84;5023124;28;1099;-50
2024/02/22 09:56:51;;;;;;;;;;;;;;;17.74;43.50;101336.06;5035205;28;1299;-51
2024/02/22 09:59:16;;;;;;;;;;;;;;;16.92;45.07;101322.63;5035895;28;1114;-50
2024/02/22 10:01:42;;;;;;;;;;;;;;;16.64;45.11;101317.41;5035349;28;1047;-53
2024/02/22 10:04:23;;;;;;;;;;;;;;;16.47;44.87;101323.03;5035159;28;873;-46
2024/02/22 10:06:48;;;;;;;;;;;;;;;18.12;42.98;101319.47;5035282;28;1007;-48
2024/02/22 10:09:14;;;;;;;;;;;;;;;17.15;45.04;101325.25;5025884;28;1111;-48
2024/02/22 10:11:43;;;;;;;;;;;;;;;16.63;45.84;101308.31;5032678;28;1909;-53
2024/02/22 10:14:10;;;;;;;;;;;;;;;18.47;42.29;101307.69;5035841;28;1146;-52
2024/02/22 10:16:37;;;;;;;;;;;;;;;17.27;44.54;101301.97;5035786;28;1531;-55
2024/02/22 10:19:02;;;;;;;;;;;;;;;16.87;45.04;101302.50;5036106;28;1199;-53
2024/02/22 10:21:28;;;;;;;;;;;;;;;16.64;44.90;101299.00;5035397;28;1035;-52
2024/02/22 10:23:54;;;;;;;;;;;;;;;18.23;42.52;101301.88;5036040;28;1154;-52
2024/02/22 10:26:20;;;;;;;;;;;;;;;16.91;45.31;101299.00;5024368;28;1023;-55
2024/02/22 10:28:53;;;;;;;;;;;;;;;16.66;45.25;101285.03;5031406;28;975;-56
2024/02/22 10:31:21;;;;;;;;;;;;;;;18.04;43.16;101282.28;5033154;28;1905;-57
2024/02/22 10:33:47;;;;;;;;;;;;;;;17.29;44.39;101276.97;5015575;28;1020;-57
2024/02/22 10:36:13;;;;;;;;;;;;;;;16.83;45.30;101271.13;5028120;28;1242;-56
2024/02/22 10:38:38;;;;;;;;;;;;;;;16.56;45.37;101274.78;5033792;28;1199;-56
2024/02/22 10:41:04;;;;;;;;;;;;;;;17.91;43.48;101280.06;5035874;28;1055;-56
2024/02/22 10:43:29;;;;;;;;;;;;;;;17.39;44.37;101279.78;5027758;28;1129;-56
2024/02/22 10:45:57;;;;;;;;;;;;;;;16.82;45.46;101275.00;5033859;28;1107;-56
2024/02/22 10:48:23;;;;;;;;;;;;;;;16.55;45.55;101267.63;5027808;28;1187;-46
2024/02/22 10:50:48;;;;;;;;;;;;;;;17.44;44.56;101255.06;5033265;28;1906;-48
2024/02/22 10:53:15;;;;;;;;;;;;;;;17.16;45.04;101253.53;5025733;28;1140;-50
2024/02/22 10:55:40;;;;;;;;;;;;;;;16.66;45.67;101261.16;5034857;28;1080;-47
2024/02/22 10:58:06;;;;;;;;;;;;;;;18.29;42.61;101250.41;5025337;28;1253;-52
2024/02/22 11:00:32;;;;;;;;;;;;;;;16.97;45.22;101239.44;5032377;28;1124;-50
2024/02/22 11:02:57;;;;;;;;;;;;;;;16.63;45.52;101239.69;5066653;28;1031;-48
2024/02/22 11:05:23;;;;;;;;;;;;;;;16.68;45.74;101227.94;5021931;28;1099;-47
2024/02/22 11:07:48;;;;;;;;;;;;;;;17.40;44.20;101229.22;5070557;28;1442;-51
2024/02/22 11:10:14;;;;;;;;;;;;;;;16.84;45.60;101223.38;5022078;28;1906;-50
2024/02/22 11:12:43;;;;;;;;;;;;;;;18.66;41.64;101220.94;5018711;28;1020;-48
2024/02/22 11:15:10;;;;;;;;;;;;;;;17.61;43.92;101212.78;5036292;28;1028;-52
2024/02/22 11:17:35;;;;;;;;;;;;;;;17.02;45.02;101206.47;5038520;28;1293;-48
2024/02/22 11:20:07;;;;;;;;;;;;;;;17.50;44.33;101202.84;5038649;28;1056;-48
2024/02/22 11:22:33;;;;;;;;;;;;;;;17.65;43.77;101199.34;5038585;28;1134;-49
2024/02/22 11:24:59;;;;;;;;;;;;;;;16.91;44.98;101199.28;5027343;28;1111;-48
2024/02/22 11:27:25;;;;;;;;;;;;;;;16.82;45.12;101190.69;5037434;28;1171;-52
2024/02/22 11:29:50;;;;;;;;;;;;;;;18.40;42.16;101202.50;5039172;28;1907;-51
2024/02/22 11:32:16;;;;;;;;;;;;;;;17.15;44.82;101194.16;5035091;28;1090;-55
2024/02/22 11:34:41;;;;;;;;;;;;;;;16.73;45.00;101193.09;5029416;28;1023;-57
2024/02/22 11:37:20;;;;;;;;;;;;;;;16.61;44.92;101195.22;5034332;28;1094;-46
2024/02/22 11:39:57;;;;;;;;;;;;;;;17.75;43.68;101191.09;5037626;28;1095;-50
2024/02/22 11:42:23;;;;;;;;;;;;;;;17.03;44.96;101197.16;5037991;28;1048;-51
2024/02/22 11:44:49;;;;;;;;;;;;;;;16.59;45.48;101194.63;5038806;28;1035;-49
2024/02/22 11:47:14;;;;;;;;;;;;;;;18.04;43.10;101194.22;5037588;28;1011;-49
2024/02/22 11:49:40;;;;;;;;;;;;;;;17.23;44.67;101184.59;5038699;28;1086;-54
2024/02/22 11:52:07;;;;;;;;;;;;;;;16.76;45.34;101187.06;5037835;28;1977;-56
2024/02/22 11:54:32;;;;;;;;;;;;;;;16.60;45.38;101179.81;5037840;28;1130;-52
2024/02/22 11:57:02;;;;;;;;;;;;;;;18.11;42.94;101183.75;5038363;28;1144;-55
2024/02/22 11:59:28;;;;;;;;;;;;;;;17.18;44.64;101177.19;5038033;28;1163;-50
2024/02/22 12:01:53;;;;;;;;;;;;;;;16.73;45.24;101187.59;5031897;28;1059;-49
2024/02/22 12:04:18;;;;;;;;;;;;;;;18.06;43.25;101183.78;5036341;28;1076;-51
2024/02/22 12:06:44;;;;;;;;;;;;;;;17.07;45.08;101169.97;5037605;28;1051;-53
2024/02/22 12:09:10;;;;;;;;;;;;;;;18.06;42.99;101181.03;5037227;28;1150;-48
2024/02/22 12:11:35;;;;;;;;;;;;;;;18.26;42.46;101168.38;5025069;28;1968;-47
2024/02/22 12:14:03;;;;;;;;;;;;;;;17.17;44.71;101158.22;5018311;28;1123;-50
2024/02/22 12:16:29;;;;;;;;;;;;;;;16.88;45.18;101162.16;5030596;28;1182;-50
2024/02/22 12:18:54;;;;;;;;;;;;;;;16.71;44.65;101150.50;5027661;28;1017;-47
2024/02/22 12:21:23;;;;;;;;;;;;;;;18.24;42.85;101149.38;5037368;28;1028;-46
2024/02/22 12:23:49;;;;;;;;;;;;;;;17.25;44.64;101143.91;5026301;28;1027;-49
2024/02/22 12:26:17;;;;;;;;;;;;;;;16.81;45.21;101139.56;5035498;28;1068;-47
2024/02/22 12:28:42;;;;;;;;;;;;;;;16.52;45.60;101145.47;5036903;28;1047;-48
2024/02/22 12:31:08;;;;;;;;;;;;;;;16.38;45.26;101142.34;5031891;28;1897;-46
2024/02/22 12:33:33;;;;;;;;;;;;;;;16.36;44.88;101141.75;5029306;28;1048;-50
2024/02/22 12:36:01;;;;;;;;;;;;;;;17.94;43.50;101141.94;5036916;28;1107;-51
2024/02/22 12:38:27;;;;;;;;;;;;;;;16.94;45.49;101130.06;5036884;28;1147;-53
2024/02/22 12:40:52;;;;;;;;;;;;;;;16.54;46.11;101125.97;5036708;28;1269;-50
2024/02/22 12:43:18;;;;;;;;;;;;;;;17.99;43.42;101141.91;5018967;28;1043;-48